Terminal Aerodrome Forecast
Issued by NWS Spokane, WA

Home | Current Version | Previous Version | Text Only | Print | Product List | Glossary On
Versions: 1 2 3 4 5 6 7 8 9 10 11 12 13 14 15 16 17 18 19 20 21 22 23 24 25 26 27 28
000
FTUS46 KOTX 231130
TAFGEG
TAF
KGEG 231130Z 2312/2412 05006KT P6SM SCT080 BKN120
     FM231900 18010KT P6SM VCTS SCT080CB BKN120
     FM232200 22017G24KT P6SM -TSRA SCT030 BKN050CB BKN100
     FM240600 22015KT P6SM VCSH SCT030 BKN050 BKN100=

USA.gov is the U.S. government's official web portal to all federal, state and local government web resources and services.